Time;durP1;ratioP1;P1;durP2;ratioP2;P2;SDS_P1;SDS_P2;PMS_P1;PMS_P2;Temp;Humidity;BMP_temperature;BMP_pressure;BME280_temperature;BME280_humidity;BME280_pressure;Samples;Min_cycle;Max_cycle;Signal;HPM_P1;HPM_P2
2022/12/11 12:17:07;;;;;;;32.47;18.88;;;;;;;1.79;94.26;99598.63;4962124;23;20078;-96
2022/12/11 12:19:52;;;;;;;27.42;17.42;;;;;;;1.49;96.87;99597.06;4934353;29;20039;-96
2022/12/11 12:22:23;;;;;;;28.95;17.27;;;;;;;1.42;98.16;99598.16;4934691;29;20031;-96
2022/12/11 12:25:12;;;;;;;32.45;18.73;;;;;;;1.41;98.96;99593.09;4936680;29;20032;-96
2022/12/11 12:28:17;;;;;;;34.20;19.42;;;;;;;1.32;100.00;99595.94;4907498;29;20039;-96
2022/12/11 12:31:02;;;;;;;29.10;17.63;;;;;;;1.12;100.00;99594.06;4937109;29;20038;-96
2022/12/11 12:33:49;;;;;;;31.67;18.85;;;;;;;1.00;100.00;99590.19;4937452;29;20122;-96
2022/12/11 12:36:26;;;;;;;32.97;18.05;;;;;;;1.05;100.00;99596.00;4935206;29;20051;-95
2022/12/11 12:38:54;;;;;;;27.88;17.27;;;;;;;0.94;100.00;99610.72;4936469;29;20123;-95
2022/12/11 12:41:28;;;;;;;32.17;19.35;;;;;;;0.73;100.00;99597.84;4930674;29;20115;-96
2022/12/11 12:44:12;;;;;;;31.65;18.98;;;;;;;0.55;100.00;99567.91;4944655;29;20502;-96
2022/12/11 12:46:59;;;;;;;34.95;19.58;;;;;;;0.74;100.00;99581.69;4937966;29;20102;-96
2022/12/11 12:49:42;;;;;;;37.47;22.08;;;;;;;0.70;100.00;99585.19;4937678;29;20027;-96
2022/12/11 12:52:17;;;;;;;32.13;18.27;;;;;;;0.76;100.00;99587.56;4936599;29;20059;-96
2022/12/11 12:55:12;;;;;;;31.30;19.27;;;;;;;0.57;100.00;99571.22;4936487;29;20118;-95
2022/12/11 12:57:33;;;;;;;33.00;19.30;;;;;;;0.73;100.00;99574.97;4936921;29;20039;-95
2022/12/11 12:59:58;;;;;;;37.65;20.70;;;;;;;0.65;100.00;99564.19;4935801;29;20592;-96
2022/12/11 13:02:24;;;;;;;33.65;18.33;;;;;;;0.76;100.00;99571.50;4933625;29;20040;-96
2022/12/11 13:05:17;;;;;;;29.70;17.42;;;;;;;0.73;100.00;99563.97;4935338;29;20071;-95
2022/12/11 13:07:48;;;;;;;37.67;19.13;;;;;;;0.57;100.00;99556.00;4936233;29;20040;-95
2022/12/11 13:10:28;;;;;;;32.55;18.38;;;;;;;0.74;100.00;99580.88;4939876;29;20035;-96
2022/12/11 13:12:55;;;;;;;33.72;17.83;;;;;;;0.64;100.00;99563.38;4941362;29;20039;-95
2022/12/11 13:15:29;;;;;;;35.85;17.67;;;;;;;0.91;100.00;99577.81;4939974;29;20055;-96
2022/12/11 13:17:55;;;;;;;32.28;16.45;;;;;;;0.90;100.00;99545.66;4936804;29;20533;-96
2022/12/11 13:20:27;;;;;;;32.35;16.00;;;;;;;0.93;100.00;99540.50;4937903;29;20026;-96
2022/12/11 13:23:13;;;;;;;;;;;;;;;1.18;100.00;99573.56;4938181;29;20126;-96
2022/12/11 13:25:53;;;;;;;29.85;16.98;;;;;;;1.21;100.00;99578.53;4927376;29;19986;-96
2022/12/11 13:28:21;;;;;;;31.83;16.25;;;;;;;1.22;100.00;99580.16;4939268;29;20036;-96
2022/12/11 13:36:56;;;;;;;37.00;20.50;;;;;;;1.29;100.00;99556.22;4936729;29;20047;-96
2022/12/11 13:39:25;;;;;;;34.35;18.35;;;;;;;1.27;100.00;99553.75;4920415;29;20475;-96
2022/12/11 13:42:24;;;;;;;33.28;17.52;;;;;;;1.44;100.00;99559.94;4922535;29;20123;-96
2022/12/11 13:44:50;;;;;;;32.63;17.63;;;;;;;1.55;99.47;99551.97;4911478;29;20058;-94
2022/12/11 13:47:19;;;;;;;32.60;17.67;;;;;;;1.50;98.38;99555.50;4920681;29;20036;-94
2022/12/11 13:49:50;;;;;;;35.88;18.38;;;;;;;1.39;99.50;99562.66;4918857;29;20027;-95
2022/12/11 13:52:17;;;;;;;;;;;;;;;1.31;99.38;99568.88;4920401;29;20028;-95
2022/12/11 13:54:49;;;;;;;32.15;17.38;;;;;;;1.45;98.10;99561.63;4924155;29;19919;-96
2022/12/11 13:57:19;;;;;;;36.15;17.30;;;;;;;1.25;99.18;99560.59;4921061;29;20391;-96
2022/12/11 13:59:56;;;;;;;32.10;17.08;;;;;;;1.17;98.64;99547.31;4911656;29;20550;-96
2022/12/11 14:08:36;;;;;;;34.50;18.02;;;;;;;0.82;100.00;99566.22;4928389;23;20056;-96
2022/12/11 14:11:03;;;;;;;39.33;19.77;;;;;;;0.56;100.00;99551.78;4915831;29;20107;-96
2022/12/11 14:13:35;;;;;;;36.92;18.15;;;;;;;0.50;100.00;99569.75;4915618;29;20024;-96
2022/12/11 14:16:02;;;;;;;32.88;17.10;;;;;;;0.11;100.00;99552.28;4918295;29;20039;-96
2022/12/11 14:18:34;;;;;;;37.08;18.60;;;;;;;0.30;100.00;99553.41;4919972;29;20040;-96
2022/12/11 14:21:02;;;;;;;38.38;18.48;;;;;;;0.33;100.00;99578.69;4920092;29;20048;-96
2022/12/11 14:23:33;;;;;;;38.03;19.02;;;;;;;0.17;100.00;99552.94;4919639;29;20028;-96
2022/12/11 14:26:02;;;;;;;35.83;18.90;;;;;;;0.28;100.00;99559.41;4921751;29;20020;-96
2022/12/11 18:33:48;;;;;;;20.35;12.75;;;;;;;-0.40;100.00;99621.31;5763167;22;11728453;-96
2022/12/11 18:37:07;;;;;;;;;;;;;;;;;;;;;
2022/12/11 18:59:13;;;;;;;17.23;10.77;;;;;;;-0.49;100.00;99622.38;6255877;22;20212;-96
2022/12/11 19:01:54;;;;;;;;;;;;;;;;;;;;;
2022/12/11 19:05:04;;;;;;;;;;;;;;;-0.22;100.00;99661.38;6250303;22;20032;-96
2022/12/11 19:08:02;;;;;;;17.52;10.50;;;;;;;-0.40;100.00;99628.91;6220346;23;19916;-96
2022/12/11 19:11:18;;;;;;;;;;;;;;;;;;;;;
2022/12/11 19:19:36;;;;;;;14.82;11.05;;;;;;;-0.34;100.00;99637.19;6284594;22;20019;-96
2022/12/11 19:22:02;;;;;;;18.10;11.52;;;;;;;-0.25;100.00;99664.84;6257351;22;20085;-95
2022/12/11 19:24:28;;;;;;;17.58;11.43;;;;;;;-0.09;100.00;99675.44;6259391;22;20134;-96
2022/12/11 19:27:07;;;;;;;15.77;11.05;;;;;;;-0.18;100.00;99664.69;6264893;22;20011;-96
2022/12/11 19:29:33;;;;;;;17.17;10.93;;;;;;;-0.32;100.00;99637.16;6262877;22;20006;-96
2022/12/11 19:32:01;;;;;;;18.08;11.40;;;;;;;-0.34;100.00;99642.28;6253103;22;20004;-96
2022/12/11 19:34:27;;;;;;;17.95;11.75;;;;;;;-0.16;100.00;99662.97;6252723;22;19995;-96
2022/12/11 19:36:53;;;;;;;17.85;11.38;;;;;;;-0.31;100.00;99641.38;6253632;22;20003;-95
2022/12/11 19:39:27;;;;;;;19.17;11.38;;;;;;;-0.29;100.00;99649.78;6259359;22;20038;-96
2022/12/11 19:41:53;;;;;;;16.25;11.75;;;;;;;-0.32;100.00;99644.75;6253358;22;20004;-94
2022/12/11 19:44:18;;;;;;;20.42;11.98;;;;;;;-0.44;100.00;99651.81;6251453;22;20083;-96
2022/12/11 19:46:44;;;;;;;17.55;12.20;;;;;;;-0.25;100.00;99681.75;6252294;22;20042;-94
2022/12/11 19:49:10;;;;;;;16.90;12.10;;;;;;;-0.47;100.00;99651.03;6253963;22;20359;-94
2022/12/11 19:51:39;;;;;;;20.27;12.50;;;;;;;-0.34;100.00;99642.28;6253741;22;19999;-96
2022/12/11 19:54:06;;;;;;;15.55;11.30;;;;;;;-0.43;100.00;99648.41;6254229;22;20307;-96
2022/12/11 19:56:36;;;;;;;15.32;10.90;;;;;;;-0.36;100.00;99658.41;6254304;22;20011;-96
2022/12/11 19:59:07;;;;;;;15.60;10.30;;;;;;;-0.41;100.00;99655.13;6254656;22;20083;-96
2022/12/11 20:01:35;;;;;;;14.95;10.85;;;;;;;-0.43;100.00;99648.41;6253946;22;20448;-96
2022/12/11 20:04:09;;;;;;;17.48;12.02;;;;;;;-0.38;100.00;99655.06;6252428;22;20039;-96
2022/12/11 20:06:37;;;;;;;15.52;11.48;;;;;;;-0.25;100.00;99671.63;6253035;22;20007;-96
2022/12/11 20:09:06;;;;;;;18.75;12.85;;;;;;;-0.23;100.00;99658.03;6252886;22;20004;-96
2022/12/11 20:11:35;;;;;;;18.70;12.25;;;;;;;-0.16;100.00;99676.47;6253363;22;20011;-96
2022/12/11 20:14:03;;;;;;;19.52;11.85;;;;;;;-0.13;100.00;99681.44;6254489;22;20006;-96
2022/12/11 20:16:32;;;;;;;22.15;13.20;;;;;;;-0.26;100.00;99669.97;6252922;22;20000;-96
2022/12/11 20:18:58;;;;;;;22.27;14.77;;;;;;;-0.17;100.00;99684.94;6252361;22;20364;-96
2022/12/11 20:21:26;;;;;;;23.13;13.65;;;;;;;-0.26;100.00;99665.72;6252846;22;20027;-96
2022/12/11 20:23:54;;;;;;;20.95;13.93;;;;;;;-0.32;100.00;99659.97;6253458;22;20437;-96
2022/12/11 20:26:22;;;;;;;23.75;14.23;;;;;;;-0.22;100.00;99676.59;6253933;22;20008;-96
2022/12/11 20:28:52;;;;;;;33.13;18.13;;;;;;;-0.18;100.00;99662.97;6254472;22;20079;-96
2022/12/11 20:31:22;;;;;;;36.47;19.48;;;;;;;-0.11;100.00;99682.25;6254780;22;20011;-96
2022/12/11 20:33:52;;;;;;;35.80;18.73;;;;;;;-0.28;100.00;99661.56;6253716;22;20062;-96
2022/12/11 20:36:22;;;;;;;31.63;18.15;;;;;;;-0.35;100.00;99670.19;6253555;22;20070;-96
2022/12/11 20:38:49;;;;;;;36.72;20.58;;;;;;;-0.17;100.00;99690.03;6223777;23;20312;-96
2022/12/11 20:41:18;;;;;;;39.22;20.85;;;;;;;-0.43;100.00;99662.78;6223531;23;20000;-96
2022/12/11 20:43:45;;;;;;;40.45;20.67;;;;;;;-0.46;100.00;99668.75;6224141;23;20087;-96
2022/12/11 20:52:21;;;;;;;30.88;16.17;;;;;;;-0.10;100.00;99689.00;6243106;23;20007;-95
2022/12/11 20:59:11;;;;;;;27.83;14.25;;;;;;;-0.43;100.00;99673.75;6242814;23;20004;-95
2022/12/11 21:10:46;;;;;;;20.00;12.43;;;;;;;-0.61;100.00;99658.16;6043970;23;20011;-96
2022/12/11 21:17:17;;;;;;;16.20;9.75;;;;;;;-0.64;100.00;99648.91;6002560;23;20012;-96
2022/12/11 21:49:08;;;;;;;;;;;;;;;;;;;;;
2022/12/11 21:52:35;;;;;;;;;;;;;;;;;;;;;
2022/12/11 22:03:25;;;;;;;31.83;16.90;;;;;;;-0.28;100.00;99722.41;5931180;24;20175;-94
2022/12/11 22:10:29;;;;;;;;;;;;;;;;;;;;;
2022/12/11 22:13:39;;;;;;;28.70;14.93;;;;;;;-0.50;100.00;99705.19;5941283;24;20204;-96
2022/12/11 22:27:21;;;;;;;;;;;;;;;;;;;;;
2022/12/11 22:38:26;;;;;;;;;;;;;;;;;;;;;
2022/12/11 22:42:04;;;;;;;;;;;;;;;;;;;;;
2022/12/11 23:07:59;;;;;;;;;;;;;;;;;;;;;
2022/12/11 23:26:44;;;;;;;26.33;14.02;;;;;;;-0.70;100.00;99780.84;6245357;22;20020;-96
2022/12/11 23:29:18;;;;;;;31.38;14.68;;;;;;;-0.88;100.00;99772.78;6223850;23;20082;-95
2022/12/11 23:32:04;;;;;;;30.83;15.40;;;;;;;-0.92;100.00;99757.69;6223348;23;20012;-95
2022/12/11 23:34:46;;;;;;;32.28;15.40;;;;;;;-0.90;100.00;99764.38;6223238;23;20008;-94
2022/12/11 23:37:21;;;;;;;32.85;14.82;;;;;;;-0.84;100.00;99788.75;6224904;23;20008;-96
2022/12/11 23:40:17;;;;;;;;;;;;;;;;;;;;;
2022/12/11 23:42:52;;;;;;;28.35;14.43;;;;;;;-0.98;100.00;99758.63;6250923;23;20027;-96
2022/12/11 23:45:50;;;;;;;30.88;15.70;;;;;;;-1.10;100.00;99761.41;6224155;23;20011;-96
2022/12/11 23:48:29;;;;;;;29.65;14.43;;;;;;;-0.95;100.00;99788.97;6224553;23;20446;-96
2022/12/11 23:51:17;;;;;;;29.45;14.82;;;;;;;-1.05;100.00;99768.91;6224588;23;20045;-96
2022/12/11 23:54:21;;;;;;;32.72;14.95;;;;;;;-1.02;100.00;99774.78;6224436;23;20099;-96
2022/12/11 23:57:05;;;;;;;31.25;15.85;;;;;;;-0.88;100.00;99812.47;6225421;23;20036;-96
2022/12/11 23:59:53;;;;;;;33.15;15.23;;;;;;;-0.77;100.00;99804.66;6227127;23;20035;-96
